Time;durP1;ratioP1;P1;durP2;ratioP2;P2;SDS_P1;SDS_P2;PMS_P1;PMS_P2;Temp;Humidity;BMP_temperature;BMP_pressure;BME280_temperature;BME280_humidity;BME280_pressure;Samples;Min_cycle;Max_cycle;Signal;HPM_P1;HPM_P2
2021/09/05 00:01:44;;;;;;;22.80;12.13;;;10.90;99.90;;;;;;5050979;28;20203;-71
2021/09/05 00:04:11;;;;;;;21.13;10.80;;;11.00;99.90;;;;;;5052245;28;20207;-71
2021/09/05 00:06:39;;;;;;;22.67;10.53;;;10.90;99.90;;;;;;5053586;28;20201;-71
2021/09/05 00:09:06;;;;;;;22.27;11.13;;;11.00;99.90;;;;;;5052468;28;20245;-71
2021/09/05 00:11:33;;;;;;;21.17;10.80;;;11.00;99.90;;;;;;5067568;28;20549;-71
2021/09/05 00:14:00;;;;;;;16.50;9.13;;;11.00;99.90;;;;;;5052303;28;20749;-71
2021/09/05 00:16:26;;;;;;;17.03;9.60;;;10.50;99.90;;;;;;5053125;28;20574;-71
2021/09/05 00:18:53;;;;;;;18.20;10.00;;;10.20;99.90;;;;;;5052272;28;20231;-71
2021/09/05 00:21:20;;;;;;;17.90;9.00;;;10.40;99.90;;;;;;5052009;28;20209;-71
2021/09/05 00:23:48;;;;;;;17.33;9.73;;;10.60;99.90;;;;;;5044293;28;20208;-71
2021/09/05 00:26:15;;;;;;;18.13;10.43;;;10.70;99.90;;;;;;5043462;28;20572;-70
2021/09/05 00:28:42;;;;;;;17.33;9.87;;;10.50;99.90;;;;;;5052710;28;20203;-71
2021/09/05 00:31:09;;;;;;;18.40;10.60;;;10.20;99.90;;;;;;5052453;28;20290;-71
2021/09/05 00:33:37;;;;;;;21.00;10.87;;;10.20;99.90;;;;;;5050512;28;20199;-70
2021/09/05 00:36:04;;;;;;;17.97;9.67;;;10.30;99.90;;;;;;5040895;28;20542;-70
2021/09/05 00:38:31;;;;;;;17.20;9.67;;;10.30;99.90;;;;;;5036879;28;20218;-70
2021/09/05 00:40:59;;;;;;;17.37;9.57;;;10.40;99.90;;;;;;5051938;28;20697;-71
2021/09/05 00:43:26;;;;;;;18.03;10.53;;;10.50;99.90;;;;;;5052053;28;20310;-70
2021/09/05 00:45:53;;;;;;;18.30;10.50;;;10.50;99.90;;;;;;5051334;28;20203;-70
2021/09/05 00:48:20;;;;;;;18.53;10.13;;;10.60;99.90;;;;;;5051932;28;20590;-70
2021/09/05 00:50:47;;;;;;;20.70;11.50;;;10.60;99.90;;;;;;5051561;28;20685;-70
2021/09/05 00:53:14;;;;;;;17.60;10.50;;;10.70;99.90;;;;;;5038313;28;20202;-70
2021/09/05 00:55:41;;;;;;;20.77;11.17;;;10.70;99.90;;;;;;5037114;28;20211;-71
2021/09/05 00:58:09;;;;;;;17.53;9.97;;;10.70;99.90;;;;;;5044510;28;20199;-70
2021/09/05 01:00:36;;;;;;;17.13;9.20;;;10.60;99.90;;;;;;5042171;28;20659;-70
2021/09/05 01:03:04;;;;;;;17.10;9.40;;;10.30;99.90;;;;;;5046981;28;20199;-70
2021/09/05 01:05:31;;;;;;;17.47;9.13;;;9.80;99.90;;;;;;5046544;28;20203;-70
2021/09/05 01:07:58;;;;;;;16.40;9.13;;;9.50;99.90;;;;;;5040862;28;20210;-70
2021/09/05 01:10:25;;;;;;;19.90;10.97;;;9.70;99.90;;;;;;5041132;28;20196;-70
2021/09/05 01:12:52;;;;;;;19.73;9.83;;;10.00;99.90;;;;;;5047658;28;20258;-70
2021/09/05 01:15:20;;;;;;;20.30;12.03;;;10.20;99.90;;;;;;5042777;28;20211;-70
2021/09/05 01:17:47;;;;;;;22.13;11.00;;;10.20;99.90;;;;;;5042400;28;20215;-70
2021/09/05 01:20:14;;;;;;;20.53;9.63;;;10.20;99.90;;;;;;5044520;28;20219;-70
2021/09/05 01:22:41;;;;;;;17.63;9.67;;;10.30;99.90;;;;;;5043725;28;20199;-70
2021/09/05 01:25:09;;;;;;;18.57;9.40;;;10.30;99.90;;;;;;5046948;28;20204;-70
2021/09/05 01:27:37;;;;;;;18.37;9.80;;;10.30;99.90;;;;;;5043809;28;20202;-70
2021/09/05 01:30:05;;;;;;;7.10;4.40;;;10.40;99.90;;;;;;5038469;28;20646;-70
2021/09/05 01:32:32;;;;;;;13.40;7.10;;;10.20;99.90;;;;;;5045102;28;20672;-70
2021/09/05 01:34:59;;;;;;;22.77;10.67;;;9.60;99.90;;;;;;5047081;28;20199;-70
2021/09/05 01:37:25;;;;;;;19.07;9.70;;;9.30;99.90;;;;;;5044421;28;20208;-70
2021/09/05 01:39:52;;;;;;;20.20;10.27;;;9.00;99.90;;;;;;5044660;28;20734;-70
2021/09/05 01:42:19;;;;;;;16.13;8.87;;;9.10;99.90;;;;;;5045430;28;20294;-70
2021/09/05 01:44:47;;;;;;;24.70;7.80;;;9.20;99.90;;;;;;5042818;28;20654;-70
2021/09/05 01:47:14;;;;;;;27.93;6.47;;;9.20;99.90;;;;;;5038676;28;20198;-70
2021/09/05 01:49:41;;;;;;;65.83;8.67;;;9.40;99.90;;;;;;5046059;28;20301;-70
2021/09/05 01:52:08;;;;;;;24.67;6.03;;;9.20;99.90;;;;;;5039184;28;20293;-70
2021/09/05 01:54:35;;;;;;;14.53;6.90;;;9.30;99.90;;;;;;5035903;28;20206;-70
2021/09/05 01:57:02;;;;;;;19.03;10.20;;;9.40;99.90;;;;;;5038116;28;20210;-70
2021/09/05 01:59:28;;;;;;;17.03;9.30;;;9.50;99.90;;;;;;5041078;28;20211;-70
2021/09/05 02:01:57;;;;;;;20.70;9.83;;;9.50;99.90;;;;;;5041194;28;20203;-70
2021/09/05 02:04:23;;;;;;;16.07;8.70;;;9.60;99.90;;;;;;5042934;28;20636;-70
2021/09/05 02:06:50;;;;;;;11.90;7.90;;;9.70;99.90;;;;;;5040122;28;20223;-70
2021/09/05 02:09:17;;;;;;;14.47;8.17;;;9.60;99.90;;;;;;5044156;28;20210;-70
2021/09/05 02:11:44;;;;;;;17.60;9.70;;;9.70;99.90;;;;;;5043713;28;20206;-70
2021/09/05 02:14:11;;;;;;;14.50;5.40;;;9.70;99.90;;;;;;5040867;28;20207;-70
2021/09/05 02:16:38;;;;;;;19.37;6.10;;;9.60;99.90;;;;;;5046359;28;20205;-70
2021/09/05 02:19:06;;;;;;;21.67;8.10;;;9.20;99.90;;;;;;5046074;28;20199;-70
2021/09/05 02:21:33;;;;;;;23.13;6.30;;;8.90;99.90;;;;;;5044180;28;20215;-70
2021/09/05 02:24:00;;;;;;;10.57;6.73;;;8.70;99.90;;;;;;5041242;28;20289;-70
2021/09/05 02:26:27;;;;;;;9.40;5.30;;;8.80;99.90;;;;;;5045350;28;20655;-70
2021/09/05 02:28:53;;;;;;;9.27;6.50;;;9.00;99.90;;;;;;5042274;28;20583;-70
2021/09/05 02:31:20;;;;;;;10.73;6.43;;;9.00;99.90;;;;;;5041731;28;20208;-70
2021/09/05 02:33:47;;;;;;;10.90;7.07;;;9.10;99.90;;;;;;5042539;28;20211;-70
2021/09/05 02:36:15;;;;;;;11.13;6.47;;;9.30;99.90;;;;;;5042319;28;20212;-70
2021/09/05 02:38:42;;;;;;;5.80;4.73;;;9.40;99.90;;;;;;5034459;28;20295;-70
2021/09/05 02:41:09;;;;;;;10.27;6.30;;;9.30;99.90;;;;;;5041439;28;20688;-70
2021/09/05 02:43:36;;;;;;;14.30;6.17;;;8.90;99.90;;;;;;5043378;28;20208;-70
2021/09/05 02:46:03;;;;;;;11.33;5.40;;;8.60;99.90;;;;;;5043389;28;20199;-70
2021/09/05 02:48:29;;;;;;;7.20;5.30;;;8.60;99.90;;;;;;5040947;28;20204;-70
2021/09/05 02:50:56;;;;;;;12.43;6.87;;;8.70;99.90;;;;;;5043032;28;20199;-70
2021/09/05 02:53:24;;;;;;;15.37;7.87;;;8.90;99.90;;;;;;5042829;28;20199;-70
2021/09/05 02:55:51;;;;;;;15.70;8.77;;;9.10;99.90;;;;;;5043627;28;20630;-70
2021/09/05 02:58:18;;;;;;;13.07;7.27;;;9.10;99.90;;;;;;5041440;28;20221;-70
2021/09/05 03:00:45;;;;;;;13.20;5.73;;;9.30;99.90;;;;;;5045774;28;20215;-70
2021/09/05 03:03:12;;;;;;;8.20;5.27;;;8.70;99.90;;;;;;5047180;28;20215;-70
2021/09/05 03:05:39;;;;;;;9.00;5.60;;;8.50;99.90;;;;;;5048938;28;20303;-70
2021/09/05 03:08:05;;;;;;;7.70;5.43;;;8.50;99.90;;;;;;5039034;28;20683;-70
2021/09/05 03:10:34;;;;;;;5.33;4.37;;;8.50;99.90;;;;;;5046904;28;20191;-70
2021/09/05 03:13:01;;;;;;;5.40;4.40;;;8.50;99.90;;;;;;5043597;28;20200;-70
2021/09/05 03:15:28;;;;;;;6.10;4.50;;;8.60;99.90;;;;;;5048516;28;20239;-70
2021/09/05 03:17:55;;;;;;;12.80;8.03;;;8.70;99.90;;;;;;5048457;28;20203;-70
2021/09/05 03:20:22;;;;;;;12.00;7.13;;;8.80;99.90;;;;;;5047713;28;20225;-70
2021/09/05 03:22:49;;;;;;;20.17;7.63;;;8.90;99.90;;;;;;5043526;28;20298;-70
2021/09/05 03:25:17;;;;;;;16.80;7.00;;;9.00;99.90;;;;;;5045612;28;20222;-70
2021/09/05 03:27:45;;;;;;;16.13;6.70;;;8.40;99.90;;;;;;5044238;28;20253;-70
2021/09/05 03:30:12;;;;;;;43.00;8.33;;;8.10;99.90;;;;;;5043909;28;20794;-70
2021/09/05 03:32:39;;;;;;;19.37;7.07;;;8.20;99.90;;;;;;5047659;28;20294;-70
2021/09/05 03:35:07;;;;;;;13.90;7.00;;;8.20;99.90;;;;;;5041048;28;20206;-70
2021/09/05 03:37:33;;;;;;;21.63;6.87;;;8.30;99.90;;;;;;5043887;28;20204;-70
2021/09/05 03:40:00;;;;;;;18.97;6.90;;;8.40;99.90;;;;;;5042578;28;20568;-70
2021/09/05 03:42:27;;;;;;;41.70;7.20;;;8.40;99.90;;;;;;5048921;28;20203;-70
2021/09/05 03:44:55;;;;;;;24.50;6.93;;;8.30;99.90;;;;;;5045445;28;20203;-70
2021/09/05 03:47:23;;;;;;;62.13;7.90;;;8.50;99.90;;;;;;5046161;28;20249;-70
2021/09/05 03:49:50;;;;;;;35.57;6.80;;;8.30;99.90;;;;;;5041795;28;20211;-70
2021/09/05 03:52:17;;;;;;;27.07;6.43;;;8.40;99.90;;;;;;5048200;28;20657;-71
2021/09/05 03:54:44;;;;;;;9.60;5.20;;;8.20;99.90;;;;;;5046863;28;20199;-70
2021/09/05 03:57:11;;;;;;;29.83;5.93;;;8.20;99.90;;;;;;5046274;28;20207;-70
2021/09/05 03:59:38;;;;;;;28.63;5.80;;;8.30;99.90;;;;;;5043084;28;20205;-70
2021/09/05 04:02:06;;;;;;;20.87;6.30;;;8.20;99.90;;;;;;5047448;28;20231;-70
2021/09/05 04:04:33;;;;;;;19.83;5.57;;;8.30;99.90;;;;;;5044232;28;20680;-70
2021/09/05 04:07:02;;;;;;;25.20;5.03;;;8.20;99.90;;;;;;5046966;28;20209;-70
2021/09/05 04:12:14;;;;;;;9.37;4.90;;;8.40;99.90;;;;;;5044959;28;20202;-70
2021/09/05 04:14:41;;;;;;;11.83;4.97;;;8.40;99.90;;;;;;5042245;28;20199;-70
2021/09/05 04:17:10;;;;;;;5.23;4.43;;;8.30;99.90;;;;;;5042312;28;20210;-70
2021/09/05 04:19:36;;;;;;;8.10;5.17;;;8.50;99.90;;;;;;5046090;28;20203;-70
2021/09/05 04:22:04;;;;;;;7.63;5.07;;;8.40;99.90;;;;;;5043556;28;20227;-70
2021/09/05 04:24:31;;;;;;;8.10;5.57;;;8.40;99.90;;;;;;5044282;28;20296;-70
2021/09/05 04:26:58;;;;;;;7.97;5.30;;;8.40;99.90;;;;;;5041536;28;20735;-70
2021/09/05 04:29:25;;;;;;;6.97;5.23;;;8.40;99.90;;;;;;5043043;28;20650;-70
2021/09/05 04:31:51;;;;;;;6.57;5.17;;;8.40;99.90;;;;;;5042839;28;20604;-70
2021/09/05 04:34:20;;;;;;;7.60;4.83;;;8.40;99.90;;;;;;5042109;28;20215;-70
2021/09/05 04:36:47;;;;;;;5.53;4.63;;;8.40;99.90;;;;;;5039025;28;20556;-70
2021/09/05 04:39:13;;;;;;;4.70;3.90;;;8.40;99.90;;;;;;5077411;23;20233;-74
2021/09/05 04:41:40;;;;;;;4.70;4.20;;;8.30;99.90;;;;;;5062517;28;20249;-75
2021/09/05 04:44:07;;;;;;;11.50;3.40;;;8.40;99.90;;;;;;5048676;28;20563;-74
2021/09/05 04:46:34;;;;;;;11.80;4.10;;;8.30;99.90;;;;;;5049853;28;20203;-74
2021/09/05 04:49:01;;;;;;;6.07;4.27;;;7.90;99.90;;;;;;5048426;28;20203;-74
2021/09/05 04:51:29;;;;;;;6.13;4.50;;;8.10;99.90;;;;;;5041658;28;20537;-74
2021/09/05 04:53:56;;;;;;;6.23;4.60;;;8.10;99.90;;;;;;5048158;28;20203;-74
2021/09/05 04:56:23;;;;;;;11.37;4.73;;;8.30;99.90;;;;;;5054230;28;20199;-74
2021/09/05 04:58:50;;;;;;;5.47;4.43;;;8.30;99.90;;;;;;5043205;28;20195;-75
2021/09/05 05:01:17;;;;;;;6.00;4.47;;;8.20;99.90;;;;;;5046405;28;20219;-75
2021/09/05 05:03:44;;;;;;;7.50;4.73;;;8.20;99.90;;;;;;5047430;28;20568;-74
2021/09/05 05:06:11;;;;;;;6.40;4.73;;;8.30;99.90;;;;;;5047300;28;20289;-74
2021/09/05 05:08:39;;;;;;;7.53;5.17;;;8.40;99.90;;;;;;5049193;28;20661;-74
2021/09/05 05:11:06;;;;;;;8.23;5.20;;;8.40;99.90;;;;;;5048832;28;20633;-75
2021/09/05 05:13:33;;;;;;;8.03;5.70;;;8.60;99.90;;;;;;5046710;28;20665;-74
2021/09/05 05:16:00;;;;;;;8.57;6.00;;;8.50;99.90;;;;;;5054159;28;20210;-74
2021/09/05 05:18:26;;;;;;;8.77;6.20;;;8.60;99.90;;;;;;5045838;28;20199;-74
2021/09/05 05:20:53;;;;;;;7.73;5.17;;;8.60;99.90;;;;;;5047687;28;20679;-74
2021/09/05 05:23:20;;;;;;;9.20;5.57;;;8.70;99.90;;;;;;5051040;28;20207;-74
2021/09/05 05:25:48;;;;;;;8.87;5.67;;;8.90;99.90;;;;;;5047669;28;20202;-74
2021/09/05 05:28:15;;;;;;;7.87;5.40;;;9.00;99.90;;;;;;5044609;28;20226;-75
2021/09/05 05:30:42;;;;;;;8.23;4.50;;;9.00;99.90;;;;;;5045619;28;20203;-74
2021/09/05 05:33:09;;;;;;;9.90;5.77;;;9.00;99.90;;;;;;5043826;28;20305;-74
2021/09/05 05:35:35;;;;;;;7.90;5.10;;;9.00;99.90;;;;;;5061721;28;20202;-74
2021/09/05 05:38:02;;;;;;;9.23;5.83;;;9.10;99.90;;;;;;5059586;28;20215;-75
2021/09/05 05:40:32;;;;;;;7.93;5.40;;;9.20;99.90;;;;;;5052168;28;20203;-75
2021/09/05 05:43:01;;;;;;;8.87;5.80;;;9.20;99.90;;;;;;5046628;28;20231;-75
2021/09/05 05:45:28;;;;;;;9.23;5.43;;;9.40;99.90;;;;;;5058610;28;20202;-74
2021/09/05 05:47:55;;;;;;;8.03;5.43;;;9.30;99.90;;;;;;5057755;28;20264;-75
2021/09/05 05:50:24;;;;;;;8.23;5.90;;;9.40;99.90;;;;;;5054735;28;20200;-75
2021/09/05 05:52:51;;;;;;;7.43;5.53;;;9.40;99.90;;;;;;5053060;28;20248;-75
2021/09/05 05:55:18;;;;;;;9.63;6.37;;;9.30;99.90;;;;;;5049564;28;20562;-75
2021/09/05 05:57:45;;;;;;;10.03;6.80;;;9.50;99.90;;;;;;5048979;28;20216;-75
2021/09/05 06:00:15;;;;;;;11.70;6.50;;;9.50;99.90;;;;;;5049824;28;20627;-75
2021/09/05 06:02:42;;;;;;;8.67;5.90;;;9.80;99.90;;;;;;5043608;28;20234;-75
2021/09/05 06:05:09;;;;;;;11.93;7.50;;;9.90;99.90;;;;;;5053624;28;20206;-74
2021/09/05 06:07:36;;;;;;;11.43;7.37;;;10.00;99.90;;;;;;5051736;28;20203;-74
2021/09/05 06:10:03;;;;;;;17.13;8.87;;;9.90;99.90;;;;;;5050457;28;20216;-74
2021/09/05 06:12:30;;;;;;;30.80;11.40;;;10.00;99.90;;;;;;5065869;28;20297;-75
2021/09/05 06:14:57;;;;;;;22.90;10.90;;;9.80;99.90;;;;;;5054471;28;20199;-75
2021/09/05 06:17:25;;;;;;;22.53;11.07;;;10.00;99.90;;;;;;5057275;28;20699;-75
2021/09/05 06:19:52;;;;;;;19.07;9.47;;;10.10;99.90;;;;;;5044901;28;20209;-75
2021/09/05 06:22:18;;;;;;;16.37;9.13;;;10.10;99.90;;;;;;5043413;28;20228;-75
2021/09/05 06:24:46;;;;;;;19.13;9.40;;;10.10;99.90;;;;;;5045737;28;20199;-75
2021/09/05 06:27:13;;;;;;;18.87;9.33;;;10.20;99.90;;;;;;5041871;28;20297;-75
2021/09/05 06:29:39;;;;;;;26.97;9.97;;;10.20;99.90;;;;;;5052349;28;20207;-75
2021/09/05 06:32:07;;;;;;;15.43;9.43;;;10.40;99.90;;;;;;5043089;28;20220;-75
2021/09/05 06:34:35;;;;;;;15.27;9.20;;;10.30;99.90;;;;;;5046854;28;20665;-75
2021/09/05 06:37:02;;;;;;;15.43;9.83;;;10.30;99.90;;;;;;5041315;28;20211;-74
2021/09/05 06:39:29;;;;;;;16.33;10.00;;;10.30;99.90;;;;;;5053499;28;20206;-73
2021/09/05 06:41:58;;;;;;;14.53;9.80;;;10.40;99.90;;;;;;5050876;28;20692;-73
2021/09/05 06:44:24;;;;;;;16.33;10.13;;;10.40;99.90;;;;;;5049220;28;20204;-73
2021/09/05 06:46:51;;;;;;;15.93;10.47;;;10.50;99.90;;;;;;5048708;28;20596;-74
2021/09/05 06:49:18;;;;;;;17.83;11.07;;;10.60;99.90;;;;;;5045437;28;20203;-74
2021/09/05 06:51:47;;;;;;;19.10;11.70;;;10.70;99.90;;;;;;5054674;28;20577;-74
2021/09/05 06:54:13;;;;;;;19.10;12.10;;;10.60;99.90;;;;;;5049796;28;20643;-73
2021/09/05 06:56:41;;;;;;;17.07;11.17;;;10.80;99.90;;;;;;5051061;28;20199;-74
2021/09/05 06:59:08;;;;;;;17.33;11.53;;;11.10;99.90;;;;;;5049789;28;20225;-75
2021/09/05 07:01:35;;;;;;;18.47;12.20;;;11.40;99.90;;;;;;5046848;28;20322;-74
2021/09/05 07:04:01;;;;;;;21.47;13.23;;;11.40;99.90;;;;;;5045745;28;20199;-73
2021/09/05 07:06:28;;;;;;;20.00;13.17;;;11.30;99.90;;;;;;5048972;28;20199;-73
2021/09/05 07:08:56;;;;;;;21.67;13.33;;;11.40;99.90;;;;;;5049257;28;20213;-73
2021/09/05 07:11:23;;;;;;;21.03;12.30;;;11.60;99.90;;;;;;5050853;28;20206;-74
2021/09/05 07:13:50;;;;;;;21.37;11.87;;;11.50;99.90;;;;;;5047926;28;20209;-74
2021/09/05 07:16:17;;;;;;;20.13;12.27;;;11.70;99.90;;;;;;5048482;28;20205;-74
2021/09/05 07:18:44;;;;;;;19.83;12.43;;;11.70;99.90;;;;;;5045207;28;20261;-73
2021/09/05 07:21:11;;;;;;;20.53;12.07;;;11.80;99.90;;;;;;5047702;28;20203;-74
2021/09/05 07:23:38;;;;;;;20.43;12.70;;;11.90;99.90;;;;;;5047413;28;20229;-74
2021/09/05 07:26:06;;;;;;;20.53;12.20;;;12.00;99.90;;;;;;5044639;28;20200;-74
2021/09/05 07:28:36;;;;;;;20.07;11.80;;;12.00;99.90;;;;;;5046137;28;20207;-74
2021/09/05 07:31:03;;;;;;;19.43;12.03;;;12.10;99.90;;;;;;5049408;28;20254;-73
2021/09/05 07:33:30;;;;;;;21.10;13.73;;;12.00;99.90;;;;;;5051440;28;20222;-74
2021/09/05 07:35:57;;;;;;;20.40;12.47;;;12.00;99.90;;;;;;5049449;28;20645;-74
2021/09/05 07:38:24;;;;;;;19.70;12.13;;;12.10;99.90;;;;;;5046805;28;20215;-74
2021/09/05 07:40:51;;;;;;;18.97;11.77;;;12.00;99.90;;;;;;5048833;28;20207;-74
2021/09/05 07:43:19;;;;;;;20.10;12.63;;;12.10;99.90;;;;;;5056169;28;20230;-74
2021/09/05 07:45:46;;;;;;;21.37;12.27;;;12.20;99.90;;;;;;5042002;28;20199;-75
2021/09/05 07:48:12;;;;;;;21.00;12.47;;;12.20;99.90;;;;;;5050107;28;20649;-74
2021/09/05 07:50:39;;;;;;;19.13;12.13;;;12.30;99.90;;;;;;5048596;28;20207;-74
2021/09/05 07:53:06;;;;;;;21.13;12.30;;;12.20;99.90;;;;;;5044074;28;20199;-74
2021/09/05 07:55:33;;;;;;;16.63;10.37;;;12.40;99.90;;;;;;5053808;28;20209;-74
2021/09/05 07:58:00;;;;;;;17.20;11.07;;;12.30;99.90;;;;;;5045949;28;20452;-74
2021/09/05 08:00:28;;;;;;;19.80;11.93;;;12.40;99.90;;;;;;5049871;28;20210;-73
2021/09/05 08:02:55;;;;;;;19.20;11.23;;;12.40;99.90;;;;;;5051428;28;20219;-74
2021/09/05 08:05:22;;;;;;;19.13;12.10;;;12.40;99.90;;;;;;5051241;28;20198;-74
2021/09/05 08:07:49;;;;;;;19.47;11.10;;;12.40;99.90;;;;;;5051850;28;20588;-74
2021/09/05 08:10:15;;;;;;;21.57;12.03;;;12.50;99.90;;;;;;5052993;28;20260;-74
2021/09/05 08:12:42;;;;;;;20.03;12.23;;;12.80;99.90;;;;;;5048393;28;20219;-75
2021/09/05 08:15:10;;;;;;;19.43;11.40;;;12.90;99.90;;;;;;5053500;28;20205;-74
2021/09/05 08:17:38;;;;;;;16.80;10.20;;;12.90;99.90;;;;;;5045228;28;20199;-74
2021/09/05 08:20:06;;;;;;;19.27;11.57;;;13.10;99.90;;;;;;5052448;28;20202;-74
2021/09/05 08:22:33;;;;;;;21.57;12.53;;;13.10;99.90;;;;;;5043869;28;20224;-74
2021/09/05 08:25:00;;;;;;;20.17;11.67;;;13.30;99.90;;;;;;5044683;28;20567;-73
2021/09/05 08:27:28;;;;;;;21.97;12.30;;;13.30;99.90;;;;;;5049322;28;20314;-74
2021/09/05 08:29:55;;;;;;;24.40;14.40;;;13.50;99.90;;;;;;5054911;28;20675;-74
2021/09/05 08:32:22;;;;;;;19.70;11.80;;;13.40;99.90;;;;;;5047141;28;20208;-74
2021/09/05 08:34:50;;;;;;;19.43;11.40;;;13.60;99.90;;;;;;5052946;28;20206;-73
2021/09/05 08:37:17;;;;;;;22.77;13.27;;;13.60;99.90;;;;;;5046325;28;20203;-74
2021/09/05 08:39:44;;;;;;;22.57;13.27;;;13.70;99.90;;;;;;5045869;28;20219;-73
2021/09/05 08:42:11;;;;;;;22.07;12.03;;;13.50;99.90;;;;;;5057611;28;20593;-74
2021/09/05 08:44:38;;;;;;;23.63;14.00;;;13.50;99.90;;;;;;5056791;28;20657;-74
2021/09/05 08:47:08;;;;;;;22.73;12.70;;;13.50;99.90;;;;;;5065893;28;20210;-74
2021/09/05 08:49:36;;;;;;;27.50;14.40;;;13.60;99.90;;;;;;5056602;28;20333;-73
2021/09/05 08:52:06;;;;;;;28.90;15.43;;;13.80;99.90;;;;;;5049384;28;20202;-72
2021/09/05 08:54:33;;;;;;;22.53;15.00;;;14.20;99.90;;;;;;5050004;28;20219;-73
2021/09/05 08:57:00;;;;;;;22.10;13.10;;;14.20;99.90;;;;;;5053420;28;20691;-73
2021/09/05 08:59:27;;;;;;;24.63;15.40;;;14.30;99.90;;;;;;5040569;28;20200;-74
2021/09/05 09:01:55;;;;;;;26.53;15.23;;;14.40;99.90;;;;;;5038604;28;20227;-73
2021/09/05 09:04:23;;;;;;;25.63;15.23;;;14.40;99.90;;;;;;5048792;28;20449;-73
2021/09/05 09:06:50;;;;;;;24.03;15.00;;;14.60;99.90;;;;;;5047236;28;20209;-73
2021/09/05 09:09:19;;;;;;;24.77;15.77;;;14.50;99.90;;;;;;5042135;28;20203;-73
2021/09/05 09:11:50;;;;;;;23.57;15.50;;;14.50;99.90;;;;;;5050033;28;20211;-73
2021/09/05 09:14:17;;;;;;;23.30;14.50;;;14.90;99.90;;;;;;5052837;28;20206;-73
2021/09/05 09:16:44;;;;;;;24.83;14.80;;;15.30;99.90;;;;;;5047663;28;20211;-73
2021/09/05 09:19:26;;;;;;;24.10;14.07;;;15.10;99.90;;;;;;5048342;28;20199;-74
2021/09/05 09:21:54;;;;;;;22.83;14.77;;;15.70;99.90;;;;;;5047413;28;20230;-73
2021/09/05 09:24:23;;;;;;;22.67;13.13;;;16.00;99.90;;;;;;5050658;28;20203;-73
2021/09/05 09:26:58;;;;;;;21.80;13.15;;;16.10;99.90;;;;;;5056485;28;20195;-73
2021/09/05 09:29:25;;;;;;;22.58;14.05;;;16.60;99.90;;;;;;5047805;28;20588;-73
2021/09/05 09:32:05;;;;;;;20.20;13.77;;;16.50;99.90;;;;;;5047989;28;20229;-73
2021/09/05 09:34:39;;;;;;;22.20;13.95;;;16.30;99.90;;;;;;5051933;28;20206;-72
2021/09/05 09:37:12;;;;;;;23.25;13.85;;;16.50;99.90;;;;;;5031624;28;20661;-73
2021/09/05 09:39:46;;;;;;;20.25;13.38;;;16.70;99.90;;;;;;5055569;28;20215;-73
2021/09/05 09:42:33;;;;;;;20.25;15.02;;;16.70;99.90;;;;;;5035970;28;20223;-73
2021/09/05 09:45:00;;;;;;;20.75;13.63;;;16.90;99.90;;;;;;5045694;28;20205;-73
2021/09/05 09:47:37;;;;;;;21.27;14.20;;;17.10;99.90;;;;;;5051153;28;20194;-73
2021/09/05 09:50:06;;;;;;;19.92;13.85;;;17.50;99.90;;;;;;5030630;28;20291;-73
2021/09/05 09:52:33;;;;;;;22.77;13.80;;;17.60;99.90;;;;;;5050067;28;20684;-73
2021/09/05 09:55:01;;;;;;;19.80;13.55;;;17.80;99.90;;;;;;5046870;28;20214;-73
2021/09/05 09:57:29;;;;;;;22.10;14.52;;;17.90;99.90;;;;;;5048009;28;20213;-73
2021/09/05 09:59:55;;;;;;;20.33;13.18;;;18.20;99.90;;;;;;5043508;28;20209;-73
2021/09/05 10:02:27;;;;;;;21.75;13.65;;;17.80;99.90;;;;;;5043029;28;20229;-73
2021/09/05 10:04:55;;;;;;;21.50;15.00;;;17.50;99.90;;;;;;5043335;28;20217;-72
2021/09/05 10:07:23;;;;;;;21.77;14.80;;;17.40;99.90;;;;;;5047901;28;20653;-73
2021/09/05 10:09:51;;;;;;;22.00;14.93;;;17.80;99.90;;;;;;5048983;28;20195;-73
2021/09/05 10:12:20;;;;;;;23.50;15.55;;;18.20;99.90;;;;;;5057585;28;20199;-73
2021/09/05 10:14:51;;;;;;;24.98;15.10;;;18.00;99.90;;;;;;5051255;28;21288;-73
2021/09/05 10:17:19;;;;;;;23.23;14.77;;;18.40;99.90;;;;;;5055145;28;20203;-73
2021/09/05 10:19:47;;;;;;;21.77;15.23;;;18.10;99.90;;;;;;5053746;28;20217;-73
2021/09/05 10:22:16;;;;;;;21.90;14.75;;;18.00;99.90;;;;;;5051214;28;20306;-73
2021/09/05 10:24:45;;;;;;;23.10;15.15;;;18.20;99.90;;;;;;5050400;28;20207;-74
2021/09/05 10:27:13;;;;;;;21.20;14.15;;;18.20;99.90;;;;;;5047775;28;20199;-73
2021/09/05 10:30:11;;;;;;;24.80;15.20;;;18.30;99.90;;;;;;5048669;28;20221;-73
2021/09/05 10:32:46;;;;;;;27.33;14.35;;;18.30;99.90;;;;;;5045647;28;20679;-73
2021/09/05 10:35:46;;;;;;;22.15;14.40;;;18.50;99.90;;;;;;5050842;28;20203;-73
2021/09/05 10:40:57;;;;;;;19.73;12.65;;;18.70;99.90;;;;;;4920644;22;20274;-70
2021/09/05 10:43:25;;;;;;;19.63;13.73;;;18.50;99.90;;;;;;5020944;28;20721;-69
2021/09/05 10:45:57;;;;;;;19.58;12.52;;;18.20;99.90;;;;;;5027537;28;20196;-70
2021/09/05 10:48:37;;;;;;;20.15;12.45;;;18.60;99.90;;;;;;5020770;28;20204;-70
2021/09/05 10:51:08;;;;;;;20.63;13.27;;;18.60;99.90;;;;;;5019970;28;20214;-69
2021/09/05 10:53:37;;;;;;;18.75;12.65;;;18.70;99.90;;;;;;5022096;28;20192;-70
2021/09/05 10:56:10;;;;;;;18.23;12.55;;;19.10;99.90;;;;;;5025990;28;20575;-69
2021/09/05 10:58:39;;;;;;;18.77;12.10;;;18.90;99.90;;;;;;5023850;28;20206;-70
2021/09/05 11:01:30;;;;;;;17.98;11.55;;;18.90;99.90;;;;;;5019104;28;20695;-69
2021/09/05 11:04:39;;;;;;;22.30;13.40;;;19.30;99.90;;;;;;5006855;28;20232;-69
2021/09/05 11:07:09;;;;;;;20.42;13.25;;;19.10;99.90;;;;;;5024844;28;20219;-69
2021/09/05 11:09:49;;;;;;;16.95;12.32;;;18.70;99.90;;;;;;5022384;28;20214;-70
2021/09/05 11:12:32;;;;;;;18.08;13.10;;;18.90;99.90;;;;;;5022001;28;20203;-70
2021/09/05 11:15:00;;;;;;;20.38;12.98;;;19.00;99.90;;;;;;5015219;28;20287;-70
2021/09/05 11:17:30;;;;;;;20.23;12.57;;;19.10;99.90;;;;;;5026521;28;20287;-70
2021/09/05 11:19:59;;;;;;;20.17;12.23;;;19.20;99.90;;;;;;5024251;28;20212;-70
2021/09/05 11:22:30;;;;;;;17.00;11.60;;;19.30;99.90;;;;;;5022438;28;20214;-70
2021/09/05 11:25:14;;;;;;;18.35;11.82;;;19.30;99.90;;;;;;5026668;28;20204;-70
2021/09/05 11:27:47;;;;;;;17.95;11.95;;;19.20;99.90;;;;;;5030326;28;20210;-70
2021/09/05 11:30:15;;;;;;;17.25;11.50;;;19.30;99.90;;;;;;5024927;28;20203;-70
2021/09/05 11:32:43;;;;;;;17.40;11.00;;;19.50;99.90;;;;;;5029606;28;20653;-70
2021/09/05 11:35:11;;;;;;;17.33;10.60;;;19.40;99.90;;;;;;5022422;28;20571;-69
2021/09/05 11:37:40;;;;;;;21.83;11.02;;;19.40;99.90;;;;;;5027798;28;20206;-70
2021/09/05 11:40:09;;;;;;;16.42;10.05;;;19.00;99.90;;;;;;5030453;28;20634;-70
2021/09/05 11:42:37;;;;;;;16.17;10.38;;;19.30;99.90;;;;;;5027621;28;20236;-70
2021/09/05 11:45:06;;;;;;;17.63;10.15;;;19.60;99.90;;;;;;5027082;28;20680;-70
2021/09/05 11:47:33;;;;;;;16.35;10.63;;;20.00;99.90;;;;;;5025243;28;20650;-70
2021/09/05 11:50:03;;;;;;;16.40;10.57;;;19.80;99.90;;;;;;5023775;28;20695;-70
2021/09/05 11:52:32;;;;;;;16.85;10.05;;;19.60;99.90;;;;;;5025997;28;20698;-70
2021/09/05 11:55:01;;;;;;;17.55;10.07;;;19.20;99.90;;;;;;5030146;28;20502;-70
2021/09/05 11:57:28;;;;;;;15.82;10.30;;;19.40;99.90;;;;;;5020536;28;20280;-70
2021/09/05 11:59:58;;;;;;;16.08;10.45;;;19.60;99.90;;;;;;5026333;28;20293;-70
2021/09/05 12:02:30;;;;;;;17.42;10.65;;;19.50;99.90;;;;;;5026747;28;20207;-70
2021/09/05 12:04:57;;;;;;;17.05;10.30;;;19.10;99.90;;;;;;5026928;28;20577;-70
2021/09/05 12:07:27;;;;;;;16.95;10.27;;;19.20;99.90;;;;;;5025800;28;20196;-70
2021/09/05 12:10:10;;;;;;;18.98;11.38;;;19.50;99.90;;;;;;5023934;28;20200;-70
2021/09/05 12:12:38;;;;;;;17.50;10.32;;;19.50;99.90;;;;;;5022821;28;20230;-70
2021/09/05 12:15:13;;;;;;;17.48;11.05;;;19.40;99.90;;;;;;5022851;28;20666;-70
2021/09/05 12:17:44;;;;;;;17.55;10.50;;;19.40;99.90;;;;;;5021454;28;20213;-69
2021/09/05 12:20:13;;;;;;;17.00;10.90;;;19.00;99.90;;;;;;5028060;28;20196;-70
2021/09/05 12:22:47;;;;;;;18.85;11.05;;;19.20;99.90;;;;;;5026120;28;20525;-70
2021/09/05 12:25:20;;;;;;;16.27;10.70;;;19.60;99.90;;;;;;5025671;28;20211;-70
2021/09/05 12:28:01;;;;;;;18.90;10.80;;;19.60;99.90;;;;;;5022571;28;20204;-70
2021/09/05 12:30:30;;;;;;;17.75;11.38;;;19.60;99.90;;;;;;5017809;28;20200;-70
2021/09/05 12:33:12;;;;;;;17.90;10.60;;;19.60;99.90;;;;;;5025790;28;20195;-70
2021/09/05 12:35:41;;;;;;;17.02;10.40;;;19.40;99.90;;;;;;5025337;28;20207;-70
2021/09/05 12:38:11;;;;;;;21.27;12.07;;;19.50;99.90;;;;;;5025376;28;20208;-70
2021/09/05 12:40:40;;;;;;;19.67;10.55;;;19.70;99.90;;;;;;5022913;28;20207;-70
2021/09/05 12:43:07;;;;;;;17.23;10.93;;;19.60;99.90;;;;;;5023293;28;20228;-70
2021/09/05 12:45:35;;;;;;;17.80;11.23;;;19.60;99.90;;;;;;5024369;28;20572;-71
2021/09/05 12:48:16;;;;;;;15.80;9.98;;;19.20;99.90;;;;;;5028422;28;20294;-69